Time;durP1;ratioP1;P1;durP2;ratioP2;P2;SDS_P1;SDS_P2;PMS_P1;PMS_P2;Temp;Humidity;BMP_temperature;BMP_pressure;BME280_temperature;BME280_humidity;BME280_pressure;Samples;Min_cycle;Max_cycle;Signal;HPM_P1;HPM_P2
2020/12/14 00:00:21;;;;;;;11.20;10.20;;;3.30;99.90;;;4.09;100.00;97698.59;5198131;28;20210;-79
2020/12/14 00:02:53;;;;;;;10.67;9.67;;;3.30;99.90;;;4.03;100.00;97699.91;5204342;28;20612;-78
2020/12/14 00:05:26;;;;;;;10.93;9.93;;;3.30;99.90;;;3.99;99.65;97702.94;5212157;28;20218;-79
2020/12/14 00:07:58;;;;;;;10.60;9.70;;;3.20;99.90;;;3.97;99.61;97701.94;5207806;28;21179;-80
2020/12/14 00:10:30;;;;;;;9.70;8.80;;;3.20;99.90;;;3.96;99.72;97694.25;5192592;28;20201;-78
2020/12/14 00:13:03;;;;;;;9.30;8.50;;;3.20;99.90;;;3.90;99.60;97698.81;5205176;28;20230;-79
2020/12/14 00:15:35;;;;;;;9.30;8.40;;;3.10;99.90;;;3.91;99.71;97688.81;5192470;28;20628;-78
2020/12/14 00:18:07;;;;;;;10.73;8.83;;;3.10;99.90;;;3.92;99.25;97688.06;5196196;28;20674;-78
2020/12/14 00:20:39;;;;;;;10.27;9.27;;;3.10;99.90;;;3.87;99.68;97671.66;5191353;28;20232;-78
2020/12/14 00:23:11;;;;;;;9.70;8.80;;;3.10;99.90;;;3.89;99.75;97665.03;5197548;28;20327;-78
2020/12/14 00:25:43;;;;;;;11.33;10.27;;;3.00;99.90;;;3.81;98.86;97661.06;5191106;28;20201;-79
2020/12/14 00:28:16;;;;;;;10.43;9.50;;;3.00;99.90;;;3.74;99.27;97652.06;5203940;28;20215;-78
2020/12/14 00:30:48;;;;;;;10.87;9.90;;;3.00;99.90;;;3.67;98.70;97642.25;5195343;28;20202;-79
2020/12/14 00:33:20;;;;;;;10.77;9.80;;;3.00;99.90;;;3.59;99.21;97641.63;5203125;28;20207;-78
2020/12/14 00:35:52;;;;;;;10.33;9.43;;;2.90;99.90;;;3.52;98.28;97646.97;5199760;28;20230;-77
2020/12/14 00:38:24;;;;;;;11.10;10.03;;;2.90;99.90;;;3.58;99.39;97632.28;5190564;28;20281;-78
2020/12/14 00:40:56;;;;;;;10.50;9.60;;;2.90;99.90;;;3.65;99.43;97640.38;5207199;28;20222;-78
2020/12/14 00:43:29;;;;;;;10.27;9.27;;;2.90;99.90;;;3.66;99.04;97639.59;5200801;28;20204;-78
2020/12/14 00:46:01;;;;;;;10.47;9.33;;;2.90;99.90;;;3.64;99.71;97641.13;5210682;28;20203;-78
2020/12/14 00:48:34;;;;;;;10.00;9.03;;;3.00;99.90;;;3.65;99.89;97646.28;5208979;28;20619;-78
2020/12/14 00:51:06;;;;;;;9.53;8.63;;;3.00;99.90;;;3.67;99.99;97642.25;5198343;28;20226;-78
2020/12/14 00:53:39;;;;;;;9.77;8.87;;;3.00;99.90;;;3.65;99.85;97648.81;5196153;28;20204;-78
2020/12/14 00:56:11;;;;;;;10.43;9.43;;;2.90;99.90;;;3.64;100.00;97642.00;5204644;28;20288;-78
2020/12/14 00:58:44;;;;;;;9.50;8.70;;;2.90;99.90;;;3.58;100.00;97637.34;5191707;28;20218;-78
2020/12/14 01:01:18;;;;;;;10.33;9.43;;;2.90;99.90;;;3.67;99.95;97636.31;5194877;28;20246;-78
2020/12/14 01:03:50;;;;;;;10.00;9.00;;;2.90;99.90;;;3.68;100.00;97653.25;5210069;28;20691;-79
2020/12/14 01:06:22;;;;;;;10.30;9.30;;;2.70;99.90;;;3.57;99.39;97658.31;5202011;28;20279;-78
2020/12/14 01:08:54;;;;;;;9.90;8.90;;;2.60;99.90;;;3.47;99.80;97655.81;5211116;28;20273;-79
2020/12/14 01:11:27;;;;;;;9.80;8.90;;;2.50;99.90;;;3.40;99.17;97676.28;5206370;28;20262;-79
2020/12/14 01:14:00;;;;;;;9.17;8.30;;;2.50;99.90;;;3.29;99.46;97683.00;5194730;28;20239;-79
2020/12/14 01:16:32;;;;;;;9.80;8.80;;;2.40;99.90;;;3.29;99.84;97703.19;5203008;28;20226;-79
2020/12/14 01:19:05;;;;;;;9.17;8.27;;;2.40;99.90;;;3.38;98.25;97709.00;5211266;28;20204;-79
2020/12/14 01:21:37;;;;;;;10.00;9.00;;;2.30;99.90;;;3.32;98.27;97707.59;5199028;28;20223;-76
2020/12/14 01:24:09;;;;;;;10.47;9.47;;;2.30;99.90;;;3.24;98.44;97706.09;5198165;28;20205;-78
2020/12/14 01:26:41;;;;;;;9.40;8.53;;;2.30;99.90;;;3.13;98.12;97706.09;5197267;28;20280;-78
2020/12/14 01:29:14;;;;;;;9.53;8.73;;;2.30;99.90;;;2.94;97.77;97701.13;5195522;28;20659;-79
2020/12/14 01:31:46;;;;;;;10.60;9.60;;;2.20;99.90;;;2.70;97.28;97687.38;5204334;28;20301;-79
2020/12/14 01:34:18;;;;;;;9.13;8.23;;;2.00;99.90;;;2.73;97.77;97706.06;5201435;28;20202;-78
2020/12/14 01:36:50;;;;;;;10.07;9.17;;;2.00;99.90;;;2.75;97.97;97707.03;5198925;28;20221;-79
2020/12/14 01:39:22;;;;;;;9.63;8.73;;;2.00;99.90;;;2.74;97.84;97692.66;5207991;28;20632;-78
2020/12/14 01:41:56;;;;;;;10.67;9.63;;;1.90;99.90;;;2.71;98.78;97681.56;5201771;28;20248;-77
2020/12/14 01:44:29;;;;;;;10.63;9.53;;;2.00;99.90;;;2.71;98.62;97673.97;5209196;28;20198;-78
2020/12/14 01:47:02;;;;;;;9.57;8.67;;;2.00;99.90;;;2.74;98.91;97663.25;5210481;28;20292;-78
2020/12/14 01:49:35;;;;;;;9.23;8.33;;;2.00;99.90;;;2.69;98.91;97657.84;5205539;28;20299;-79
2020/12/14 01:52:07;;;;;;;10.20;9.30;;;1.90;99.90;;;2.60;97.74;97654.53;5198211;28;20245;-79
2020/12/14 01:54:40;;;;;;;8.93;8.13;;;1.90;99.90;;;2.52;98.60;97655.56;5202419;28;20650;-78
2020/12/14 01:57:12;;;;;;;10.30;9.30;;;1.90;99.90;;;2.56;99.23;97661.75;5209986;28;20231;-79
2020/12/14 01:59:46;;;;;;;9.67;8.67;;;1.90;99.90;;;2.61;98.27;97661.38;5194452;28;20208;-79
2020/12/14 02:02:18;;;;;;;9.03;8.13;;;1.90;99.90;;;2.65;98.51;97673.47;5209909;28;20259;-79
2020/12/14 02:04:50;;;;;;;9.67;8.77;;;2.00;99.90;;;2.65;99.32;97678.50;5211720;28;20205;-78
2020/12/14 02:07:24;;;;;;;9.60;8.80;;;2.00;99.90;;;2.69;100.00;97679.69;5192633;28;20205;-78
2020/12/14 02:09:57;;;;;;;9.60;8.70;;;2.10;99.90;;;2.72;100.00;97679.94;5193687;28;20205;-78
2020/12/14 02:12:29;;;;;;;8.57;7.67;;;2.00;99.90;;;2.70;99.80;97672.22;5207395;28;20224;-77
2020/12/14 02:15:02;;;;;;;9.40;8.60;;;2.00;99.90;;;2.70;99.72;97677.28;5194334;28;20209;-80
2020/12/14 02:17:34;;;;;;;9.57;8.70;;;2.00;99.90;;;2.71;99.61;97673.97;5213572;28;20268;-80
2020/12/14 02:20:07;;;;;;;9.27;8.53;;;1.90;99.90;;;2.67;99.55;97659.34;5201125;28;20242;-81
2020/12/14 02:22:39;;;;;;;8.63;7.90;;;1.80;99.90;;;2.62;99.71;97662.25;5219233;28;20229;-79
2020/12/14 02:25:11;;;;;;;8.80;7.93;;;1.80;99.90;;;2.55;98.76;97649.84;5210566;28;20209;-76
2020/12/14 02:27:45;;;;;;;8.83;8.03;;;1.70;99.90;;;2.49;99.34;97645.22;5201981;28;20194;-79
2020/12/14 02:30:17;;;;;;;9.27;8.37;;;1.70;99.90;;;2.56;99.56;97642.44;5210406;28;20204;-79
2020/12/14 02:32:49;;;;;;;8.40;7.63;;;1.80;99.90;;;2.45;99.23;97628.91;5199915;28;20225;-79
2020/12/14 02:35:22;;;;;;;9.07;7.93;;;1.70;99.90;;;2.43;98.87;97624.50;5204369;28;20222;-80
2020/12/14 02:37:54;;;;;;;8.67;7.97;;;1.70;99.90;;;2.39;98.65;97627.53;5217588;28;20202;-79
2020/12/14 02:40:27;;;;;;;8.03;7.40;;;1.60;99.90;;;2.35;99.87;97630.56;5221943;28;20203;-79
2020/12/14 02:42:59;;;;;;;8.77;7.97;;;1.60;99.90;;;2.32;99.50;97628.66;5220492;28;20206;-78
2020/12/14 02:45:31;;;;;;;8.83;8.03;;;1.70;99.90;;;2.40;99.50;97641.88;5222268;28;20650;-80
2020/12/14 02:48:04;;;;;;;8.87;8.07;;;1.70;99.90;;;2.34;99.17;97639.72;5222338;28;20249;-78
2020/12/14 02:50:36;;;;;;;7.63;6.93;;;1.70;99.90;;;2.46;100.00;97635.75;5229193;28;20268;-78
2020/12/14 02:53:08;;;;;;;8.13;7.33;;;1.80;99.90;;;2.57;99.78;97628.19;5227624;28;20319;-83
2020/12/14 02:55:41;;;;;;;9.07;8.17;;;1.80;99.90;;;2.54;99.70;97633.84;5218012;28;20309;-79
2020/12/14 02:58:13;;;;;;;8.73;7.83;;;1.80;99.90;;;2.48;99.22;97623.25;5201419;28;20202;-79
2020/12/14 03:00:47;;;;;;;8.40;7.60;;;1.70;99.90;;;2.41;98.61;97616.81;5214978;28;20212;-78
2020/12/14 03:03:19;;;;;;;8.43;7.73;;;1.60;99.90;;;2.37;99.15;97618.94;5200720;28;20294;-79
2020/12/14 03:05:51;;;;;;;7.90;7.10;;;1.50;99.90;;;2.32;99.21;97610.09;5194535;28;20205;-80
2020/12/14 03:08:25;;;;;;;7.80;7.13;;;1.40;99.90;;;2.31;98.89;97623.47;5199002;28;20203;-80
2020/12/14 03:10:58;;;;;;;8.10;7.33;;;1.50;99.90;;;2.26;99.57;97628.09;5195659;28;20230;-79
2020/12/14 03:13:30;;;;;;;7.90;7.20;;;1.50;99.90;;;2.28;99.87;97623.22;5197543;28;20198;-77
2020/12/14 03:16:02;;;;;;;7.60;6.90;;;1.50;99.90;;;2.26;99.07;97628.09;5202423;28;20226;-78
2020/12/14 03:18:34;;;;;;;8.10;7.33;;;1.40;99.90;;;2.25;98.39;97617.16;5213711;28;20220;-79
2020/12/14 03:21:07;;;;;;;7.70;7.00;;;1.30;99.90;;;2.16;98.51;97621.41;5214616;28;20276;-79
2020/12/14 03:23:39;;;;;;;7.77;7.07;;;1.30;99.90;;;2.10;98.81;97620.91;5212435;28;20312;-81
2020/12/14 03:26:15;;;;;;;7.47;6.87;;;1.30;99.90;;;1.98;98.49;97604.72;5216671;28;20736;-80
2020/12/14 03:28:47;;;;;;;7.40;6.80;;;1.20;99.90;;;1.97;98.93;97608.00;5204635;28;20663;-79
2020/12/14 03:31:20;;;;;;;7.53;6.87;;;1.20;99.90;;;2.02;98.70;97601.72;5211719;28;20219;-80
2020/12/14 03:33:53;;;;;;;7.17;6.53;;;1.20;99.90;;;1.77;97.94;97597.09;5216519;28;20634;-79
2020/12/14 03:36:25;;;;;;;6.67;6.10;;;1.10;99.90;;;1.73;98.16;97589.13;5201980;28;20255;-80
2020/12/14 03:38:58;;;;;;;7.60;6.90;;;1.10;99.90;;;1.79;98.90;97589.66;5195470;28;20199;-78
2020/12/14 03:41:30;;;;;;;7.97;7.33;;;1.20;99.90;;;1.82;98.73;97587.41;5207643;28;20333;-80
2020/12/14 03:44:03;;;;;;;8.10;7.43;;;1.10;99.90;;;1.88;99.10;97585.41;5198453;28;20205;-79
2020/12/14 03:46:35;;;;;;;7.50;6.80;;;1.10;99.90;;;1.85;97.93;97576.72;5215227;28;20204;-78
2020/12/14 03:49:09;;;;;;;7.77;7.10;;;1.10;99.90;;;1.71;97.82;97585.59;5216394;28;20221;-80
2020/12/14 03:51:41;;;;;;;7.60;7.00;;;1.00;99.90;;;1.73;97.84;97584.97;5218463;28;20257;-79
2020/12/14 03:54:13;;;;;;;7.67;6.97;;;1.10;99.90;;;1.78;98.79;97588.78;5215408;28;20212;-77
2020/12/14 03:56:46;;;;;;;7.50;6.80;;;1.20;99.90;;;2.06;98.88;97591.16;5219276;28;20229;-80
2020/12/14 03:59:18;;;;;;;7.17;6.57;;;1.40;99.90;;;2.11;99.40;97594.91;5205110;28;20208;-78
2020/12/14 04:01:55;;;;;;;7.60;6.90;;;1.60;99.90;;;2.21;98.91;97600.00;5201288;28;20221;-79
2020/12/14 04:04:27;;;;;;;7.47;6.87;;;1.60;99.90;;;2.18;99.19;97607.31;5212426;28;20204;-78
2020/12/14 04:06:59;;;;;;;7.93;7.13;;;1.50;99.90;;;2.33;98.39;97601.78;5208235;28;20202;-78
2020/12/14 04:09:31;;;;;;;6.70;6.20;;;1.50;99.90;;;2.16;98.19;97601.25;5202711;28;20206;-79
2020/12/14 04:12:04;;;;;;;7.37;6.80;;;1.30;99.90;;;2.11;98.37;97599.09;5199028;28;20606;-79
2020/12/14 04:14:36;;;;;;;6.77;6.17;;;1.30;99.90;;;2.01;98.34;97600.84;5199285;28;20198;-78
2020/12/14 04:17:08;;;;;;;7.57;6.87;;;1.20;99.90;;;1.99;98.55;97601.44;5203106;28;20224;-78
2020/12/14 04:19:40;;;;;;;7.17;6.53;;;1.10;99.90;;;1.85;98.38;97604.44;5210908;28;20202;-77
2020/12/14 04:22:12;;;;;;;6.97;6.27;;;1.10;99.90;;;1.81;98.13;97600.75;5198242;28;20708;-78
2020/12/14 04:24:44;;;;;;;6.37;5.87;;;1.10;99.90;;;1.82;98.29;97596.59;5199737;28;20289;-79
2020/12/14 04:27:17;;;;;;;7.13;6.60;;;1.10;99.90;;;1.83;99.36;97596.72;5199257;28;20296;-77
2020/12/14 04:29:49;;;;;;;6.93;6.03;;;1.10;99.90;;;1.86;98.63;97591.06;5198448;28;20219;-79
2020/12/14 04:32:22;;;;;;;6.70;6.20;;;1.10;99.90;;;1.83;98.97;97595.84;5210335;28;20276;-77
2020/12/14 04:34:54;;;;;;;7.10;6.50;;;1.10;99.90;;;1.83;99.46;97603.41;5203488;28;20208;-78
2020/12/14 04:37:26;;;;;;;6.87;6.37;;;1.00;99.90;;;1.80;98.75;97607.44;5190298;28;20227;-78
2020/12/14 04:39:58;;;;;;;8.03;7.43;;;1.00;99.90;;;1.87;99.28;97613.00;5196406;28;20203;-77
2020/12/14 04:42:31;;;;;;;7.50;6.80;;;1.00;99.90;;;1.84;98.75;97607.72;5193679;28;20227;-77
2020/12/14 04:45:04;;;;;;;6.80;6.20;;;0.90;99.90;;;1.76;98.37;97615.47;5205738;28;20206;-78
2020/12/14 04:47:36;;;;;;;6.77;6.23;;;0.90;99.90;;;1.69;98.55;97613.19;5197610;28;20649;-79
2020/12/14 04:50:10;;;;;;;6.97;6.37;;;0.90;99.90;;;1.68;98.45;97613.91;5200148;28;20196;-77
2020/12/14 04:52:43;;;;;;;7.03;6.43;;;0.90;99.90;;;1.72;99.40;97618.50;5189776;28;20231;-78
2020/12/14 04:55:20;;;;;;;6.93;6.33;;;0.90;99.90;;;1.72;98.89;97608.41;5198736;28;20296;-78
2020/12/14 04:57:53;;;;;;;6.53;6.03;;;0.90;99.90;;;1.70;99.16;97614.06;5193676;28;20242;-79
2020/12/14 05:00:25;;;;;;;6.20;5.60;;;0.90;99.90;;;1.61;98.87;97611.63;5193478;28;20830;-78
2020/12/14 05:02:58;;;;;;;6.50;6.00;;;0.80;99.90;;;1.59;99.36;97610.59;5194400;28;20229;-79
2020/12/14 05:05:31;;;;;;;6.73;6.23;;;0.80;99.90;;;1.58;98.72;97608.84;5196543;28;20295;-77
2020/12/14 05:08:04;;;;;;;6.50;6.00;;;0.90;99.90;;;1.59;99.32;97613.13;5201918;28;20219;-80
2020/12/14 05:10:36;;;;;;;7.33;6.73;;;0.90;99.90;;;1.62;99.01;97608.34;5211169;28;20242;-79
2020/12/14 05:13:12;;;;;;;6.70;6.10;;;0.90;99.90;;;1.59;99.60;97610.59;5202941;28;20621;-78
2020/12/14 05:15:44;;;;;;;6.50;6.00;;;0.90;99.90;;;1.61;99.01;97609.13;5199250;28;20200;-80
2020/12/14 05:18:22;;;;;;;6.67;6.17;;;0.90;99.90;;;1.65;99.62;97620.34;5206579;28;20295;-80
2020/12/14 05:21:00;;;;;;;6.90;6.37;;;0.90;99.90;;;1.63;99.13;97617.69;5194978;28;20212;-80
2020/12/14 05:23:33;;;;;;;7.77;7.17;;;0.90;99.90;;;1.62;99.50;97605.84;5267399;22;20311;-78
2020/12/14 05:26:06;;;;;;;7.70;7.17;;;0.90;99.90;;;1.60;99.58;97611.50;5264762;28;20198;-78
2020/12/14 05:28:40;;;;;;;7.93;7.33;;;0.90;99.90;;;1.51;98.95;97611.56;5265799;28;20195;-78
2020/12/14 05:31:18;;;;;;;7.07;6.57;;;0.80;99.90;;;1.56;99.58;97615.38;5267389;28;20217;-78
2020/12/14 05:34:09;;;;;;;7.80;7.10;;;0.80;99.90;;;1.56;99.28;97621.28;5248010;28;20648;-77
2020/12/14 05:36:56;;;;;;;7.07;6.50;;;0.80;99.90;;;1.50;99.60;97624.94;5240947;28;20230;-77
2020/12/14 05:39:29;;;;;;;7.13;6.50;;;0.70;99.90;;;1.45;98.93;97616.06;5246029;28;20214;-77
2020/12/14 05:42:13;;;;;;;7.30;6.70;;;0.70;99.90;;;1.44;99.02;97617.72;5243943;28;20222;-78
2020/12/14 05:44:49;;;;;;;7.50;6.90;;;0.70;99.90;;;1.46;99.30;97612.78;5241280;28;20206;-78
2020/12/14 05:47:27;;;;;;;7.40;6.80;;;0.70;99.90;;;1.50;98.98;97609.81;5244189;28;20202;-78
2020/12/14 05:50:01;;;;;;;7.80;7.10;;;0.80;99.90;;;1.45;99.35;97606.00;5245621;28;20664;-79
2020/12/14 05:52:34;;;;;;;7.47;6.87;;;0.70;99.90;;;1.42;99.04;97606.63;5245790;28;20626;-78
2020/12/14 05:55:10;;;;;;;6.50;5.93;;;0.70;99.90;;;1.40;99.57;97608.09;5245005;28;20203;-78
2020/12/14 05:57:49;;;;;;;8.10;7.47;;;0.70;99.90;;;1.33;98.91;97601.66;5243125;28;20236;-79
2020/12/14 06:00:22;;;;;;;9.67;8.90;;;0.70;99.90;;;1.28;98.32;97602.88;5237251;28;20333;-78
2020/12/14 06:02:55;;;;;;;8.70;7.90;;;0.60;99.90;;;1.34;99.65;97608.47;5247168;28;20233;-79
2020/12/14 06:05:28;;;;;;;7.13;6.53;;;0.70;99.90;;;1.28;98.41;97607.91;5243700;28;20204;-79
2020/12/14 06:08:01;;;;;;;8.00;7.20;;;0.60;99.90;;;1.31;98.88;97610.69;5236142;28;20216;-78
2020/12/14 06:10:33;;;;;;;7.43;6.73;;;0.70;99.90;;;1.33;98.87;97606.69;5244337;28;20198;-78
2020/12/14 06:13:08;;;;;;;7.27;6.67;;;0.70;99.90;;;1.41;99.40;97604.84;5246229;28;20208;-78
2020/12/14 06:15:46;;;;;;;8.43;7.73;;;0.70;99.90;;;1.35;99.30;97605.22;5245817;28;20192;-78
2020/12/14 06:18:22;;;;;;;8.00;7.30;;;0.70;99.90;;;1.35;99.59;97605.22;5245865;28;20630;-78
2020/12/14 06:20:54;;;;;;;9.03;8.13;;;0.70;99.90;;;1.35;99.61;97605.22;5241008;28;20210;-77
2020/12/14 06:23:30;;;;;;;10.30;9.27;;;0.60;99.90;;;1.39;99.39;97595.41;5237047;28;20385;-78
2020/12/14 06:26:06;;;;;;;9.70;8.67;;;0.70;99.90;;;1.41;99.83;97598.94;5237296;28;20195;-76
2020/12/14 06:28:38;;;;;;;9.10;7.40;;;0.70;99.90;;;1.37;99.58;97592.72;5242996;28;20201;-78
2020/12/14 06:31:11;;;;;;;8.13;7.43;;;0.70;99.90;;;1.37;99.94;97599.41;5246241;28;20674;-78
2020/12/14 06:33:43;;;;;;;7.33;6.70;;;0.70;99.90;;;1.35;100.00;97607.72;5243525;28;20228;-78
2020/12/14 06:36:18;;;;;;;8.17;7.47;;;0.70;99.90;;;1.38;99.62;97611.28;5244918;28;20230;-78
2020/12/14 06:38:52;;;;;;;8.30;7.60;;;0.80;99.90;;;1.42;100.00;97609.13;5246447;28;20685;-78
2020/12/14 06:41:24;;;;;;;7.93;7.20;;;0.80;99.90;;;1.41;100.00;97609.91;5245427;28;20221;-78
2020/12/14 06:44:06;;;;;;;8.23;7.43;;;0.70;99.90;;;1.44;99.58;97609.28;5245278;28;20231;-78
2020/12/14 06:46:39;;;;;;;7.87;7.20;;;0.70;99.90;;;1.42;99.94;97603.22;5225752;28;20200;-78
2020/12/14 06:49:11;;;;;;;8.03;7.13;;;0.70;99.90;;;1.42;99.81;97608.25;5235163;28;20621;-78
2020/12/14 06:51:51;;;;;;;7.43;6.73;;;0.60;99.90;;;1.40;99.21;97607.22;5245908;28;20204;-78
2020/12/14 06:54:39;;;;;;;9.23;7.23;;;0.70;99.90;;;1.42;99.82;97608.25;5245432;28;20196;-78
2020/12/14 06:57:12;;;;;;;9.17;7.73;;;0.70;99.90;;;1.38;99.72;97616.31;5243326;28;20232;-78
2020/12/14 06:59:51;;;;;;;9.77;8.03;;;0.60;99.90;;;1.37;99.56;97612.00;5241756;28;20228;-78
2020/12/14 07:02:36;;;;;;;7.30;6.70;;;0.60;99.90;;;1.30;99.89;97619.00;5240439;28;20218;-77
2020/12/14 07:05:35;;;;;;;8.50;7.10;;;0.50;99.90;;;1.26;99.88;97623.63;5241378;28;20220;-78
2020/12/14 07:08:07;;;;;;;9.43;8.43;;;0.50;99.90;;;1.30;99.73;97635.75;5243098;28;20198;-78
2020/12/14 07:10:39;;;;;;;8.20;7.43;;;0.60;99.90;;;1.30;99.63;97625.69;5248499;28;20203;-78
2020/12/14 07:13:11;;;;;;;8.23;7.33;;;0.60;99.90;;;1.24;99.18;97623.50;5242069;28;20238;-78
2020/12/14 07:15:43;;;;;;;7.47;6.83;;;0.50;99.90;;;1.21;98.94;97624.88;5247414;28;20223;-78
2020/12/14 07:18:22;;;;;;;8.03;7.23;;;0.50;99.90;;;1.25;100.00;97626.91;5248673;28;20229;-78
2020/12/14 07:21:03;;;;;;;7.73;6.93;;;0.60;99.90;;;1.26;99.53;97629.56;5248354;28;20203;-78
2020/12/14 07:23:36;;;;;;;7.40;6.80;;;0.60;99.90;;;1.28;99.95;97629.69;5247725;28;20301;-77
2020/12/14 07:26:11;;;;;;;8.60;7.90;;;0.60;99.90;;;1.37;100.00;97634.66;5245178;28;20199;-78
2020/12/14 07:28:49;;;;;;;7.00;6.40;;;0.60;99.90;;;1.35;99.90;97630.38;5248262;28;20198;-78
2020/12/14 07:31:24;;;;;;;7.40;6.80;;;0.60;99.90;;;1.22;99.10;97630.03;5249559;28;20208;-78
2020/12/14 07:33:59;;;;;;;7.60;7.00;;;0.50;99.90;;;1.16;98.63;97643.72;5249706;28;20633;-78
2020/12/14 07:36:33;;;;;;;6.63;6.03;;;0.40;99.90;;;1.20;99.56;97631.53;5248022;28;20222;-78
2020/12/14 07:39:07;;;;;;;7.53;6.83;;;0.50;99.90;;;1.26;99.45;97638.72;5243916;28;20571;-78
2020/12/14 07:41:46;;;;;;;7.80;7.10;;;0.60;99.90;;;1.35;98.98;97649.66;5243871;28;20197;-78
2020/12/14 07:44:18;;;;;;;7.70;6.93;;;0.60;99.90;;;1.34;99.29;97640.31;5245279;28;20785;-78
2020/12/14 07:46:51;;;;;;;8.30;7.47;;;0.70;99.90;;;1.40;99.60;97647.50;5245585;28;20210;-78
2020/12/14 07:49:24;;;;;;;8.80;8.00;;;0.70;99.90;;;1.38;99.31;97651.56;5247453;28;20248;-78
2020/12/14 07:52:02;;;;;;;9.23;8.43;;;0.70;99.90;;;1.39;99.82;97650.78;5246954;28;20221;-78
2020/12/14 07:54:34;;;;;;;9.33;7.93;;;0.70;99.90;;;1.55;99.42;97653.91;5246005;28;20206;-79
2020/12/14 07:57:16;;;;;;;9.53;8.63;;;0.90;99.90;;;1.70;100.00;97660.28;5246787;28;20218;-78
2020/12/14 07:59:52;;;;;;;9.30;8.37;;;1.00;99.90;;;1.87;100.00;97650.81;5242712;28;20204;-78
2020/12/14 08:02:24;;;;;;;9.27;8.30;;;1.20;99.90;;;2.08;100.00;97655.16;5246009;28;20216;-79
2020/12/14 08:05:03;;;;;;;9.80;8.67;;;1.30;99.90;;;2.25;100.00;97660.00;5245429;28;20207;-79
2020/12/14 08:07:44;;;;;;;18.03;13.90;;;1.50;99.90;;;2.49;100.00;97657.81;5243619;28;20193;-78
2020/12/14 08:10:29;;;;;;;20.47;14.33;;;1.60;99.90;;;2.64;99.33;97670.84;5245352;28;20230;-78
2020/12/14 08:13:09;;;;;;;12.40;11.17;;;1.70;99.90;;;2.82;98.83;97663.91;5235820;28;20222;-78
2020/12/14 08:15:41;;;;;;;11.07;9.97;;;1.90;99.90;;;2.97;97.92;97667.69;5239215;28;20195;-79
2020/12/14 08:18:16;;;;;;;11.50;10.40;;;2.00;99.90;;;3.13;97.06;97674.91;5245388;28;20219;-76
2020/12/14 08:20:52;;;;;;;14.57;12.40;;;2.00;99.90;;;3.15;95.66;97666.72;5245606;28;20590;-78
2020/12/14 08:23:41;;;;;;;10.93;9.83;;;2.10;99.90;;;3.22;95.59;97659.63;5234741;28;20498;-77
2020/12/14 08:26:16;;;;;;;12.37;11.17;;;2.20;99.90;;;3.43;94.80;97666.41;5244888;28;20552;-78
2020/12/14 08:28:50;;;;;;;11.03;10.00;;;2.60;99.90;;;3.42;94.90;97664.66;5239050;28;20200;-78
2020/12/14 08:31:22;;;;;;;10.87;9.80;;;2.50;99.90;;;3.50;95.21;97663.63;5238273;28;20202;-78
2020/12/14 08:33:57;;;;;;;10.80;9.80;;;2.60;99.90;;;3.56;95.33;97668.31;5244964;28;20221;-78
2020/12/14 08:36:29;;;;;;;11.40;10.30;;;2.70;99.90;;;3.63;95.44;97664.63;5243793;28;20235;-78
2020/12/14 08:39:02;;;;;;;12.97;11.67;;;2.90;99.90;;;3.76;94.26;97668.25;5226870;28;20207;-78
2020/12/14 08:41:34;;;;;;;12.47;11.07;;;3.10;99.90;;;3.83;94.64;97664.56;5241768;28;20649;-78
2020/12/14 08:44:06;;;;;;;12.30;11.30;;;3.00;99.90;;;3.85;93.96;97663.03;5245927;28;20702;-78
2020/12/14 08:46:38;;;;;;;15.43;14.03;;;3.00;99.90;;;3.95;93.55;97663.03;5242964;28;20205;-78
2020/12/14 08:49:10;;;;;;;16.80;15.30;;;3.10;99.90;;;4.01;94.19;97668.56;5243725;28;20203;-77
2020/12/14 08:51:43;;;;;;;17.00;15.50;;;3.20;99.90;;;4.03;94.28;97664.53;5247628;28;20200;-78
2020/12/14 08:54:17;;;;;;;12.40;11.30;;;3.40;99.90;;;3.90;90.16;97661.78;5236357;28;20201;-78
2020/12/14 08:56:49;;;;;;;13.07;11.83;;;3.30;99.90;;;3.87;90.96;97655.59;5244934;28;20230;-77
2020/12/14 08:59:23;;;;;;;12.60;11.60;;;3.20;99.90;;;3.80;91.46;97660.13;5237887;28;20282;-78
2020/12/14 09:02:00;;;;;;;13.23;11.33;;;3.20;99.90;;;4.13;93.38;97665.22;5247511;28;20222;-78
2020/12/14 09:04:36;;;;;;;11.23;10.07;;;3.40;99.90;;;4.42;92.81;97662.44;5247860;28;20230;-77
2020/12/14 09:07:21;;;;;;;9.70;8.90;;;3.60;99.90;;;4.48;92.88;97670.50;5241442;28;20205;-78
2020/12/14 09:09:54;;;;;;;10.60;9.30;;;3.70;99.90;;;4.47;92.78;97664.56;5227497;28;20211;-78
2020/12/14 09:12:27;;;;;;;9.77;8.97;;;3.80;99.90;;;4.20;88.49;97675.06;5227636;28;20707;-78
2020/12/14 09:15:05;;;;;;;10.10;9.20;;;3.70;99.90;;;4.37;92.59;97677.25;5228333;28;20558;-78
2020/12/14 09:17:37;;;;;;;9.20;8.30;;;3.70;99.90;;;4.53;92.67;97674.28;5226340;28;20227;-78
2020/12/14 09:20:10;;;;;;;9.40;8.60;;;3.80;99.90;;;4.63;92.74;97675.84;5230634;28;20215;-78
2020/12/14 09:22:46;;;;;;;9.00;8.20;;;3.90;99.90;;;4.66;92.72;97678.59;5227792;28;20325;-79
2020/12/14 09:25:18;;;;;;;9.93;8.97;;;3.80;99.90;;;4.72;93.04;97679.06;5240839;28;20381;-78
2020/12/14 09:27:50;;;;;;;9.57;8.73;;;3.90;99.90;;;4.75;93.02;97676.81;5247509;28;20199;-78
2020/12/14 09:30:22;;;;;;;9.57;8.67;;;4.00;99.90;;;4.93;93.67;97680.72;5231312;28;20250;-78
2020/12/14 09:32:54;;;;;;;9.60;8.70;;;4.20;99.90;;;5.04;93.30;97680.66;5240448;28;20234;-79
2020/12/14 09:35:26;;;;;;;9.47;8.53;;;4.30;99.90;;;5.10;93.23;97681.13;5245590;28;20207;-78
2020/12/14 09:37:59;;;;;;;9.77;8.87;;;4.40;99.90;;;5.14;93.02;97680.56;5247160;28;20232;-78
2020/12/14 09:40:31;;;;;;;10.50;9.53;;;4.40;99.90;;;5.24;93.14;97680.50;5244840;28;20200;-78
2020/12/14 09:43:03;;;;;;;9.67;8.87;;;4.50;99.90;;;5.33;91.36;97681.16;5236048;28;20215;-78
2020/12/14 09:45:35;;;;;;;11.20;10.13;;;4.60;99.90;;;5.42;91.17;97676.78;5246110;28;20205;-79
2020/12/14 09:48:06;;;;;;;10.23;9.23;;;4.70;99.90;;;5.41;90.27;97674.16;5245915;28;20240;-78
2020/12/14 09:50:39;;;;;;;10.57;9.57;;;4.60;99.90;;;5.49;91.60;97675.56;5243585;28;20497;-78
2020/12/14 09:53:12;;;;;;;11.47;10.30;;;4.70;99.90;;;5.43;92.83;97670.03;5242139;28;20212;-78
2020/12/14 09:55:45;;;;;;;12.20;11.00;;;4.70;99.90;;;5.33;91.76;97672.69;5239084;28;20477;-78
2020/12/14 09:58:17;;;;;;;12.40;11.10;;;4.80;99.90;;;5.53;93.70;97669.97;5237373;28;20674;-78
2020/12/14 10:00:49;;;;;;;13.53;12.23;;;4.90;99.90;;;5.71;93.27;97655.19;5245939;28;20210;-78
2020/12/14 10:03:21;;;;;;;13.83;12.43;;;5.10;99.90;;;5.85;93.76;97662.16;5245819;28;20224;-78
2020/12/14 10:05:53;;;;;;;12.57;11.27;;;5.20;99.90;;;5.87;93.29;97665.69;5244928;28;20738;-78
2020/12/14 10:08:26;;;;;;;13.37;11.97;;;5.30;99.90;;;6.09;91.99;97657.09;5239496;28;20843;-79
2020/12/14 10:11:25;;;;;;;12.07;10.90;;;5.40;99.90;;;5.96;90.50;97662.97;5229786;28;20194;-78
2020/12/14 10:13:57;;;;;;;12.63;11.53;;;5.30;99.90;;;5.84;88.47;97662.06;5232163;28;20719;-79
2020/12/14 10:16:29;;;;;;;12.90;11.70;;;5.30;99.90;;;6.05;92.99;97663.59;5225565;28;20204;-78
2020/12/14 10:19:16;;;;;;;11.73;10.73;;;5.50;99.90;;;6.12;91.75;97653.88;5239659;28;20605;-78
2020/12/14 10:21:48;;;;;;;12.80;11.50;;;5.50;99.90;;;6.24;93.67;97654.78;5245617;28;20196;-79
2020/12/14 10:24:21;;;;;;;12.87;11.57;;;5.60;99.90;;;6.34;94.07;97654.63;5244006;28;20197;-78
2020/12/14 10:26:53;;;;;;;11.67;10.57;;;5.70;99.90;;;6.47;93.26;97659.78;5224917;28;20193;-78
2020/12/14 10:29:25;;;;;;;12.00;10.80;;;5.90;99.90;;;6.61;94.16;97653.13;5230021;28;20752;-78
2020/12/14 10:31:58;;;;;;;11.10;10.10;;;6.00;99.90;;;6.66;92.74;97656.84;5225236;28;20218;-78
2020/12/14 10:34:31;;;;;;;12.40;11.20;;;6.10;99.90;;;6.80;93.76;97665.41;5224924;28;20208;-78
2020/12/14 10:37:03;;;;;;;13.23;11.83;;;6.20;99.90;;;6.95;93.47;97661.38;5228945;28;20221;-78
2020/12/14 10:39:36;;;;;;;12.63;11.33;;;6.30;99.90;;;6.98;93.65;97661.59;5246394;28;20569;-78
2020/12/14 10:42:08;;;;;;;13.87;12.37;;;6.30;99.90;;;7.13;93.22;97646.47;5249553;28;20711;-78
2020/12/14 10:44:40;;;;;;;13.60;12.20;;;6.40;99.90;;;7.09;88.69;97656.34;5249518;28;20193;-78
2020/12/14 10:47:12;;;;;;;13.60;12.27;;;6.40;99.90;;;7.25;85.86;97650.63;5249310;28;20204;-78
2020/12/14 10:49:44;;;;;;;14.03;12.63;;;6.50;99.90;;;7.30;89.69;97655.22;5234867;28;20207;-79
2020/12/14 10:52:16;;;;;;;13.70;12.50;;;6.60;99.90;;;7.24;90.39;97649.75;5245608;28;20219;-79
2020/12/14 10:54:50;;;;;;;13.87;12.47;;;6.50;99.90;;;7.22;87.10;97647.09;5247465;28;20199;-78